Terminal Aerodrome Forecast
Issued by NWS Memphis, TN

Home | Current Version | Previous Version | Text Only | Print | Product List | Glossary On
Versions: 1 2 3 4 5 6 7 8 9 10 11 12 13 14 15 16 17
175
FTUS44 KMEG 291921 AAA
TAFJBR
TAF AMD
KJBR 291921Z 2919/3018 07008KT 5SM SHRA VCTS SCT020 BKN030CB BKN120
     FM292100 09010KT P6SM VCSH BKN030
     FM300100 10008KT P6SM -SHRA VCTS BKN025CB OVC040
      TEMPO 3002/3006 3SM TSRA BR OVC015CB
     FM301100 17014KT P6SM VCTS OVC050CB
     FM301700 20015G22KT P6SM BKN050 OVC120=

USA.gov is the U.S. government's official web portal to all federal, state and local government web resources and services.